createdAt,value
2019-05-09T00:02:13.813Z,8.62
2019-05-09T00:04:44.480Z,8.54
2019-05-09T00:07:14.733Z,8.50
2019-05-09T00:09:44.987Z,8.50
2019-05-09T00:12:15.178Z,8.41
2019-05-09T00:14:46.607Z,8.45
2019-05-09T00:17:16.867Z,8.34
2019-05-09T00:19:47.004Z,8.43
2019-05-09T00:22:17.141Z,8.44
2019-05-09T00:24:47.380Z,8.35
2019-05-09T00:27:17.501Z,8.28
2019-05-09T00:29:48.862Z,8.19
2019-05-09T00:32:34.050Z,8.06
2019-05-09T00:35:44.245Z,8.07
2019-05-09T00:38:14.473Z,8.13
2019-05-09T00:40:54.989Z,8.02
2019-05-09T00:43:17.371Z,8.11
2019-05-09T00:46:06.438Z,8.11
2019-05-09T00:48:56.260Z,8.09
2019-05-09T00:51:26.604Z,8.15
2019-05-09T00:53:57.908Z,8.21
2019-05-09T01:04:55.160Z,8.29
2019-05-09T01:07:25.562Z,8.25
2019-05-09T01:09:55.698Z,8.26
2019-05-09T01:12:25.972Z,8.24
2019-05-09T01:14:56.106Z,8.23
2019-05-09T01:17:26.337Z,8.16
2019-05-09T01:19:57.259Z,8.24
2019-05-09T01:22:27.504Z,8.27
2019-05-09T01:24:57.833Z,8.25
2019-05-09T01:27:28.016Z,8.21
2019-05-09T01:29:58.388Z,8.26
2019-05-09T01:32:43.357Z,8.28
2019-05-09T01:35:13.542Z,8.33
2019-05-09T01:37:43.760Z,8.32
2019-05-09T01:40:15.442Z,8.27
2019-05-09T01:42:45.558Z,8.35
2019-05-09T01:45:15.998Z,8.39
2019-05-09T01:47:46.318Z,8.37
2019-05-09T01:50:16.531Z,8.34
2019-05-09T01:52:50.380Z,8.34
2019-05-09T01:55:23.481Z,8.30
2019-05-09T01:57:53.924Z,8.32
2019-05-09T02:00:24.258Z,8.31
2019-05-09T02:02:54.364Z,8.32
2019-05-09T02:05:24.573Z,8.33
2019-05-09T02:07:54.588Z,8.33
2019-05-09T02:10:24.782Z,8.27
2019-05-09T02:12:55.029Z,8.32
2019-05-09T02:15:35.111Z,8.34
2019-05-09T02:18:13.616Z,8.30
2019-05-09T02:20:43.929Z,8.33
2019-05-09T02:23:14.359Z,8.24
2019-05-09T02:25:44.710Z,8.28
2019-05-09T02:28:14.827Z,8.30
2019-05-09T02:30:45.230Z,8.24
2019-05-09T02:33:15.315Z,8.28
2019-05-09T02:35:56.400Z,8.29
2019-05-09T02:38:19.986Z,8.26
2019-05-09T02:40:50.994Z,8.11
2019-05-09T02:43:21.125Z,7.99
2019-05-09T02:46:00.773Z,7.89
2019-05-09T02:48:30.795Z,7.87
2019-05-09T02:51:01.205Z,7.82
2019-05-09T02:53:31.346Z,7.76
2019-05-09T02:56:01.529Z,7.64
2019-05-09T02:58:38.730Z,7.63
2019-05-09T03:01:29.103Z,7.51
2019-05-09T03:03:58.989Z,7.50
2019-05-09T03:06:29.498Z,7.50
2019-05-09T03:08:59.681Z,7.47
2019-05-09T03:11:29.989Z,7.48
2019-05-09T03:14:00.213Z,7.43
2019-05-09T03:16:30.607Z,7.39
2019-05-09T03:19:00.748Z,7.32
2019-05-09T03:21:49.185Z,7.29
2019-05-09T03:24:18.769Z,7.30
2019-05-09T03:26:53.937Z,7.26
2019-05-09T03:29:43.246Z,7.21
2019-05-09T03:32:14.428Z,7.26
2019-05-09T03:34:44.649Z,7.20
2019-05-09T03:37:14.768Z,7.25
2019-05-09T03:39:44.923Z,7.26
2019-05-09T03:42:18.104Z,7.24
2019-05-09T03:44:47.790Z,7.24
2019-05-09T03:47:39.938Z,7.16
2019-05-09T03:50:18.925Z,6.98
2019-05-09T03:52:49.160Z,6.89
2019-05-09T03:55:25.161Z,6.85
2019-05-09T03:58:01.197Z,6.76
2019-05-09T04:00:31.443Z,6.72
2019-05-09T04:03:02.741Z,6.64
2019-05-09T04:05:33.048Z,6.63
2019-05-09T04:08:18.907Z,6.57
2019-05-09T04:10:53.158Z,6.60
2019-05-09T04:13:31.605Z,6.58
2019-05-09T04:16:01.863Z,6.45
2019-05-09T04:18:32.098Z,6.48
2019-05-09T04:21:02.755Z,6.51
2019-05-09T04:23:33.512Z,6.64
2019-05-09T04:26:13.033Z,6.79
2019-05-09T04:28:43.409Z,6.90
2019-05-09T04:31:14.799Z,6.92
2019-05-09T04:33:47.229Z,6.92
2019-05-09T04:36:18.313Z,6.94
2019-05-09T04:38:48.543Z,6.92
2019-05-09T04:41:23.943Z,6.92
2019-05-09T04:43:50.612Z,6.93
2019-05-09T04:46:24.288Z,7.05
2019-05-09T04:48:54.186Z,7.22
2019-05-09T04:51:25.047Z,7.26
2019-05-09T04:53:55.258Z,7.42
2019-05-09T04:56:30.427Z,7.60
2019-05-09T04:59:00.772Z,7.74
2019-05-09T05:01:48.610Z,7.91
2019-05-09T05:04:20.138Z,8.28
2019-05-09T05:06:50.703Z,9.04
2019-05-09T05:09:21.587Z,9.67
2019-05-09T05:11:52.122Z,10.17
2019-05-09T05:14:22.281Z,10.48
2019-05-09T05:16:55.291Z,10.96
2019-05-09T05:19:28.614Z,11.23
2019-05-09T05:22:04.789Z,11.72
2019-05-09T05:24:50.834Z,11.98
2019-05-09T05:27:20.967Z,11.96
2019-05-09T05:29:51.239Z,11.68
2019-05-09T05:32:30.231Z,11.39
2019-05-09T05:35:17.756Z,10.88
2019-05-09T05:37:47.895Z,10.53
2019-05-09T05:40:18.257Z,10.44
2019-05-09T05:42:48.576Z,10.57
2019-05-09T05:45:19.152Z,10.70
2019-05-09T05:47:53.978Z,10.71
2019-05-09T05:50:24.547Z,10.60
2019-05-09T05:52:57.979Z,10.68
2019-05-09T05:55:28.670Z,10.68
2019-05-09T05:57:59.168Z,10.77
2019-05-09T06:00:29.297Z,10.86
2019-05-09T06:02:59.532Z,10.91
2019-05-09T06:05:29.785Z,10.93
2019-05-09T06:08:00.033Z,10.99
2019-05-09T06:10:30.267Z,10.89
2019-05-09T06:13:00.435Z,10.95
2019-05-09T06:15:30.575Z,10.95
2019-05-09T06:18:00.918Z,11.03
2019-05-09T06:20:31.160Z,11.06
2019-05-09T06:23:01.363Z,11.03
2019-05-09T06:25:31.525Z,11.22
2019-05-09T06:28:01.683Z,11.25
2019-05-09T06:30:32.324Z,11.40
2019-05-09T06:33:05.163Z,11.59
2019-05-09T06:35:37.967Z,11.67
2019-05-09T06:38:08.049Z,11.80
2019-05-09T06:40:38.416Z,11.94
2019-05-09T06:43:22.871Z,12.17
2019-05-09T06:46:11.884Z,12.46
2019-05-09T06:48:42.240Z,12.59
2019-05-09T06:51:12.533Z,12.79
2019-05-09T06:53:42.812Z,12.67
2019-05-09T06:56:13.316Z,12.51
2019-05-09T06:58:43.827Z,13.09
2019-05-09T07:01:33.254Z,13.79
2019-05-09T07:04:11.934Z,14.13
2019-05-09T07:06:48.240Z,15.01
2019-05-09T07:09:34.704Z,15.46
2019-05-09T07:12:07.673Z,15.30
2019-05-09T07:14:41.285Z,14.88
2019-05-09T07:17:08.867Z,14.34
2019-05-09T07:19:42.934Z,14.61
2019-05-09T07:22:38.971Z,14.43
2019-05-09T07:25:27.631Z,14.45
2019-05-09T07:27:58.685Z,13.93
2019-05-09T07:30:44.604Z,13.96
2019-05-09T07:33:20.787Z,14.59
2019-05-09T07:35:51.442Z,15.05
2019-05-09T07:38:31.655Z,15.39
2019-05-09T07:41:03.811Z,16.02
2019-05-09T07:43:34.059Z,16.28
2019-05-09T07:46:05.629Z,16.34
2019-05-09T07:48:38.083Z,16.08
2019-05-09T07:51:09.497Z,15.34
2019-05-09T07:53:40.121Z,15.64
2019-05-09T07:56:10.552Z,15.51
2019-05-09T07:58:40.685Z,15.28
2019-05-09T08:01:12.033Z,15.23
2019-05-09T08:03:42.283Z,15.18
2019-05-09T08:06:13.262Z,15.09
2019-05-09T08:08:43.500Z,14.50
2019-05-09T08:11:13.728Z,14.35
2019-05-09T08:13:43.909Z,14.24
2019-05-09T08:16:14.820Z,14.03
2019-05-09T08:18:45.391Z,14.22
2019-05-09T08:21:17.853Z,13.95
2019-05-09T08:23:48.580Z,13.88
2019-05-09T08:26:19.156Z,13.81
2019-05-09T08:28:49.920Z,13.29
2019-05-09T08:31:20.463Z,13.16
2019-05-09T08:33:50.641Z,12.83
2019-05-09T08:36:20.848Z,12.52
2019-05-09T08:38:51.129Z,12.60
2019-05-09T08:41:21.360Z,12.30
2019-05-09T08:43:51.807Z,12.52
2019-05-09T08:46:22.460Z,12.49
2019-05-09T08:48:52.650Z,12.48
2019-05-09T08:52:06.279Z,12.40
2019-05-09T08:54:38.192Z,12.19
2019-05-09T08:57:08.413Z,12.00
2019-05-09T08:59:38.575Z,12.14
2019-05-09T09:02:14.842Z,11.96
2019-05-09T09:04:40.962Z,11.83
2019-05-09T09:07:12.361Z,11.63
2019-05-09T09:09:43.854Z,11.89
2019-05-09T09:12:25.896Z,11.86
2019-05-09T09:14:47.893Z,12.10
2019-05-09T09:17:19.423Z,11.89
2019-05-09T09:19:50.593Z,11.89
2019-05-09T09:22:21.055Z,11.83
2019-05-09T09:24:51.618Z,12.02
2019-05-09T09:27:22.320Z,11.92
2019-05-09T09:29:52.839Z,12.15
2019-05-09T09:32:23.306Z,12.50
2019-05-09T09:34:53.741Z,12.77
2019-05-09T09:37:24.944Z,12.82
2019-05-09T09:39:58.333Z,13.05
2019-05-09T09:42:29.024Z,13.63
2019-05-09T09:44:59.874Z,13.80
2019-05-09T09:47:31.821Z,13.70
2019-05-09T09:50:02.638Z,14.11
2019-05-09T09:52:34.521Z,14.33
2019-05-09T09:55:05.424Z,14.56
2019-05-09T09:57:37.814Z,15.22
2019-05-09T10:00:26.724Z,15.94
2019-05-09T10:02:58.718Z,17.03
2019-05-09T10:05:29.383Z,17.75
2019-05-09T10:08:00.196Z,19.78
2019-05-09T10:10:36.416Z,20.93
2019-05-09T10:13:10.346Z,22.06
2019-05-09T10:15:59.974Z,23.13
2019-05-09T10:18:44.849Z,23.30
2019-05-09T10:21:19.196Z,24.21
2019-05-09T10:23:50.670Z,24.15
2019-05-09T10:26:20.925Z,25.93
2019-05-09T10:28:51.824Z,27.41
2019-05-09T10:31:22.153Z,26.69
2019-05-09T10:33:52.330Z,26.76
2019-05-09T10:36:22.603Z,27.78
2019-05-09T10:38:52.954Z,25.82
2019-05-09T10:41:23.448Z,25.04
2019-05-09T10:44:12.716Z,24.67
2019-05-09T10:47:04.788Z,24.18
2019-05-09T10:49:35.190Z,23.78
2019-05-09T10:52:05.590Z,22.50
2019-05-09T10:54:37.365Z,23.67
2019-05-09T10:57:07.778Z,21.13
2019-05-09T10:59:38.008Z,21.01
2019-05-09T11:02:09.518Z,20.16
2019-05-09T11:04:44.195Z,20.08
2019-05-09T11:07:13.373Z,19.26
2019-05-09T11:09:43.774Z,19.26
2019-05-09T11:12:13.928Z,19.07
2019-05-09T11:14:44.304Z,20.37
2019-05-09T11:17:19.318Z,22.34
2019-05-09T11:19:48.514Z,20.79
2019-05-09T11:22:18.801Z,21.47
2019-05-09T11:24:51.144Z,20.96
2019-05-09T11:27:21.173Z,20.42
2019-05-09T11:29:51.369Z,19.17
2019-05-09T11:32:21.802Z,19.02
2019-05-09T11:34:52.192Z,18.70
2019-05-09T11:37:22.647Z,17.80
2019-05-09T11:39:53.969Z,17.74
2019-05-09T11:42:24.125Z,17.73
2019-05-09T11:44:54.410Z,18.17
2019-05-09T11:47:33.614Z,18.19
2019-05-09T11:49:57.769Z,17.67
2019-05-09T11:52:28.992Z,17.79
2019-05-09T11:54:59.814Z,16.93
2019-05-09T11:57:31.455Z,17.09
2019-05-09T12:00:03.321Z,17.10
2019-05-09T12:02:35.452Z,17.03
2019-05-09T12:05:05.877Z,16.82
2019-05-09T12:07:37.891Z,16.04
2019-05-09T12:10:09.067Z,15.88
2019-05-09T12:12:39.370Z,15.78
2019-05-09T12:15:10.069Z,15.37
2019-05-09T12:17:56.602Z,15.75
2019-05-09T12:20:13.724Z,15.53
2019-05-09T12:22:44.616Z,15.50
2019-05-09T12:25:15.134Z,15.88
2019-05-09T12:27:45.506Z,16.18
2019-05-09T12:30:18.681Z,16.43
2019-05-09T12:32:48.391Z,16.70
2019-05-09T12:35:19.071Z,16.72
2019-05-09T12:37:49.702Z,17.40
2019-05-09T12:40:20.285Z,17.46
2019-05-09T12:42:50.904Z,17.70
2019-05-09T12:45:21.482Z,17.12
2019-05-09T12:48:06.446Z,17.04
2019-05-09T12:50:23.735Z,17.25
2019-05-09T12:52:54.229Z,17.09
2019-05-09T12:55:27.567Z,17.16
2019-05-09T12:57:59.438Z,17.31
2019-05-09T13:00:30.206Z,17.25
2019-05-09T13:03:02.555Z,17.40
2019-05-09T13:05:33.724Z,17.44
2019-05-09T13:08:04.100Z,17.29
2019-05-09T13:10:34.861Z,17.19
2019-05-09T13:13:08.319Z,16.80
2019-05-09T13:15:44.003Z,16.68
2019-05-09T13:18:24.611Z,16.57
2019-05-09T13:20:48.745Z,16.46
2019-05-09T13:23:18.575Z,16.29
2019-05-09T13:25:50.418Z,16.06
2019-05-09T13:28:21.006Z,16.10
2019-05-09T13:30:51.459Z,15.98
2019-05-09T13:33:21.732Z,15.87
2019-05-09T13:35:52.087Z,15.64
2019-05-09T13:38:22.765Z,15.67
2019-05-09T13:40:53.936Z,15.56
2019-05-09T13:43:24.362Z,15.03
2019-05-09T13:45:54.677Z,14.69
2019-05-09T13:48:46.786Z,14.50
2019-05-09T13:50:57.781Z,14.35
2019-05-09T13:53:28.458Z,14.05
2019-05-09T13:55:59.126Z,13.97
2019-05-09T13:58:29.340Z,13.66
2019-05-09T14:01:02.684Z,13.60
2019-05-09T14:03:33.617Z,13.47
2019-05-09T14:06:04.228Z,13.56
2019-05-09T14:08:34.684Z,13.62
2019-05-09T14:11:08.093Z,13.59
2019-05-09T14:13:38.550Z,13.66
2019-05-09T14:16:19.265Z,13.77
2019-05-09T14:18:41.939Z,14.00
2019-05-09T14:21:13.754Z,14.14
2019-05-09T14:23:51.050Z,14.73
2019-05-09T14:26:18.022Z,14.93
2019-05-09T14:28:49.139Z,15.09
2019-05-09T14:31:19.669Z,15.21
2019-05-09T14:33:49.889Z,15.25
2019-05-09T14:36:20.087Z,15.05
2019-05-09T14:38:50.210Z,14.94
2019-05-09T14:41:20.536Z,15.39
2019-05-09T14:43:51.291Z,15.28
2019-05-09T14:46:21.885Z,15.10
2019-05-09T14:48:52.505Z,14.78
2019-05-09T14:51:22.848Z,15.00
2019-05-09T14:53:53.076Z,15.09
2019-05-09T14:56:23.317Z,15.33
2019-05-09T14:58:53.712Z,15.41
2019-05-09T15:01:28.420Z,15.27
2019-05-09T15:03:58.558Z,14.98
2019-05-09T15:06:29.167Z,14.78
2019-05-09T15:08:59.427Z,14.81
2019-05-09T15:11:29.845Z,14.58
2019-05-09T15:14:00.344Z,14.37
2019-05-09T15:16:30.748Z,14.19
2019-05-09T15:19:01.343Z,14.59
2019-05-09T15:21:31.484Z,14.43
2019-05-09T15:24:02.336Z,14.24
2019-05-09T15:26:32.772Z,13.93
2019-05-09T15:29:03.143Z,13.89
2019-05-09T15:31:33.689Z,13.76
2019-05-09T15:34:05.119Z,13.56
2019-05-09T15:36:37.766Z,13.61
2019-05-09T15:39:08.348Z,13.63
2019-05-09T15:41:38.805Z,13.59
2019-05-09T15:44:09.310Z,13.62
2019-05-09T15:46:45.736Z,13.70
2019-05-09T15:49:18.208Z,13.99
2019-05-09T15:51:48.195Z,13.99
2019-05-09T15:54:18.605Z,14.55
2019-05-09T15:56:48.964Z,14.55
2019-05-09T15:59:19.763Z,14.71
2019-05-09T16:01:50.131Z,14.60
2019-05-09T16:04:20.500Z,14.52
2019-05-09T16:06:52.070Z,14.69
2019-05-09T16:09:22.866Z,14.73
2019-05-09T16:11:53.066Z,14.35
2019-05-09T16:14:23.604Z,14.43
2019-05-09T16:16:54.084Z,14.48
2019-05-09T16:19:24.467Z,14.35
2019-05-09T16:21:54.819Z,14.25
2019-05-09T16:24:27.850Z,14.35
2019-05-09T16:26:57.905Z,14.29
2019-05-09T16:29:31.952Z,14.31
2019-05-09T16:32:00.075Z,14.19
2019-05-09T16:34:31.059Z,14.21
2019-05-09T16:37:01.634Z,14.29
2019-05-09T16:39:32.001Z,14.29
2019-05-09T16:42:02.261Z,13.91
2019-05-09T16:44:32.817Z,13.90
2019-05-09T16:47:03.241Z,13.87
2019-05-09T16:49:33.599Z,14.02
2019-05-09T16:52:04.213Z,14.15
2019-05-09T16:54:43.333Z,14.13
2019-05-09T16:57:13.697Z,14.14
2019-05-09T16:59:44.040Z,13.96
2019-05-09T17:02:21.433Z,14.13
2019-05-09T17:04:46.506Z,14.27
2019-05-09T17:07:18.044Z,14.13
2019-05-09T17:09:48.720Z,14.01
2019-05-09T17:12:19.133Z,13.97
2019-05-09T17:14:49.433Z,14.07
2019-05-09T17:17:19.631Z,14.00
2019-05-09T17:19:50.118Z,13.94
2019-05-09T17:22:39.530Z,14.01
2019-05-09T17:25:10.125Z,14.19
2019-05-09T17:27:41.563Z,14.14
2019-05-09T17:30:11.993Z,13.91
2019-05-09T17:32:42.256Z,13.67
2019-05-09T17:35:12.910Z,13.64
2019-05-09T17:37:43.235Z,13.60
2019-05-09T17:40:16.121Z,13.48
2019-05-09T17:42:45.692Z,13.44
2019-05-09T17:45:16.480Z,13.48
2019-05-09T17:47:48.546Z,13.41
2019-05-09T17:50:19.506Z,13.34
2019-05-09T17:52:49.970Z,13.37
2019-05-09T17:55:20.570Z,13.21
2019-05-09T17:57:50.808Z,13.10
2019-05-09T18:00:22.188Z,13.00
2019-05-09T18:02:52.895Z,12.98
2019-05-09T18:05:23.686Z,12.87
2019-05-09T18:07:54.194Z,12.79
2019-05-09T18:10:24.819Z,12.70
2019-05-09T18:12:55.159Z,12.71
2019-05-09T18:15:28.101Z,12.61
2019-05-09T18:17:58.616Z,12.56
2019-05-09T18:20:29.375Z,12.36
2019-05-09T18:23:03.039Z,12.40
2019-05-09T18:25:31.839Z,12.34
2019-05-09T18:28:02.669Z,12.35
2019-05-09T18:30:33.236Z,12.34
2019-05-09T18:33:10.951Z,12.26
2019-05-09T18:35:41.644Z,12.25
2019-05-09T18:38:17.919Z,12.26
2019-05-09T18:40:48.368Z,12.18
2019-05-09T18:43:19.006Z,12.19
2019-05-09T18:45:49.900Z,12.17
2019-05-09T18:48:20.176Z,12.14
2019-05-09T18:50:50.641Z,12.18
2019-05-09T18:53:21.211Z,12.16
2019-05-09T18:55:51.751Z,12.15
2019-05-09T18:58:22.056Z,12.15
2019-05-09T19:00:53.034Z,12.12
2019-05-09T19:03:23.548Z,12.11
2019-05-09T19:05:56.456Z,12.11
2019-05-09T19:08:27.075Z,12.02
2019-05-09T19:10:57.920Z,11.97
2019-05-09T19:13:28.318Z,11.93
2019-05-09T19:16:14.876Z,11.89
2019-05-09T19:19:13.464Z,11.83
2019-05-09T19:21:56.039Z,11.88
2019-05-09T19:24:26.853Z,11.80
2019-05-09T19:26:57.335Z,11.86
2019-05-09T19:29:27.882Z,11.87
2019-05-09T19:31:58.150Z,11.84
2019-05-09T19:34:28.528Z,11.79
2019-05-09T19:36:59.266Z,11.84
2019-05-09T19:39:29.649Z,11.88
2019-05-09T19:42:00.226Z,11.87
2019-05-09T19:44:30.882Z,11.81
2019-05-09T19:47:02.064Z,11.85
2019-05-09T19:49:33.682Z,11.80
2019-05-09T19:52:04.303Z,11.78
2019-05-09T19:54:34.802Z,11.82
2019-05-09T19:57:05.711Z,11.76
2019-05-09T19:59:36.014Z,11.60
2019-05-09T20:02:06.877Z,11.43
2019-05-09T20:04:37.396Z,11.31
2019-05-09T20:07:07.831Z,11.30
2019-05-09T20:09:44.792Z,11.18
2019-05-09T20:12:30.744Z,11.19
2019-05-09T20:15:01.362Z,11.24
2019-05-09T20:17:32.517Z,11.20
2019-05-09T20:20:03.071Z,11.20
2019-05-09T20:22:33.975Z,11.27
2019-05-09T20:25:04.980Z,11.28
2019-05-09T20:27:35.441Z,11.29
2019-05-09T20:30:05.756Z,11.23
2019-05-09T20:32:36.085Z,11.22
2019-05-09T20:35:07.106Z,11.21
2019-05-09T20:37:38.787Z,11.19
2019-05-09T20:40:10.008Z,11.20
2019-05-09T20:42:40.676Z,11.18
2019-05-09T20:45:12.668Z,11.08
2019-05-09T20:47:43.470Z,11.10
2019-05-09T20:50:14.756Z,11.10
2019-05-09T20:52:45.399Z,11.07
2019-05-09T20:55:16.068Z,11.05
2019-05-09T20:57:46.773Z,11.06
2019-05-09T21:00:17.385Z,11.03
2019-05-09T21:02:47.960Z,10.97
2019-05-09T21:05:18.788Z,10.94
2019-05-09T21:07:49.299Z,10.98
2019-05-09T21:10:21.095Z,10.93
2019-05-09T21:12:51.688Z,10.92
2019-05-09T21:15:22.230Z,10.89
2019-05-09T21:17:53.110Z,10.94
2019-05-09T21:20:23.766Z,10.86
2019-05-09T21:22:54.700Z,10.87
2019-05-09T21:25:25.848Z,10.80
2019-05-09T21:27:56.306Z,10.75
2019-05-09T21:30:26.962Z,10.81
2019-05-09T21:32:57.435Z,10.77
2019-05-09T21:35:28.840Z,10.83
2019-05-09T21:37:59.310Z,10.86
2019-05-09T21:40:29.743Z,10.81
2019-05-09T21:43:00.032Z,10.75
2019-05-09T21:45:30.446Z,10.72
2019-05-09T21:48:00.778Z,10.74
2019-05-09T21:50:31.411Z,10.62
2019-05-09T21:53:01.905Z,10.70
2019-05-09T21:55:32.132Z,10.70
2019-05-09T21:58:02.781Z,10.66
2019-05-09T22:00:35.843Z,10.67
2019-05-09T22:03:06.933Z,10.67
2019-05-09T22:05:38.475Z,10.68
2019-05-09T22:08:08.747Z,10.63
2019-05-09T22:10:38.952Z,10.60
2019-05-09T22:13:09.225Z,10.63
2019-05-09T22:15:40.410Z,10.63
2019-05-09T22:18:10.579Z,10.64
2019-05-09T22:20:40.921Z,10.62
2019-05-09T22:23:11.207Z,10.62
2019-05-09T22:25:41.908Z,10.63
2019-05-09T22:28:12.217Z,10.62
2019-05-09T22:30:42.576Z,10.56
2019-05-09T22:33:12.744Z,10.53
2019-05-09T22:35:43.008Z,10.57
2019-05-09T22:38:13.310Z,10.58
2019-05-09T22:40:43.937Z,10.55
2019-05-09T22:43:14.170Z,10.49
2019-05-09T22:45:46.245Z,10.47
2019-05-09T22:48:16.747Z,10.33
2019-05-09T22:50:47.111Z,10.28
2019-05-09T22:53:17.271Z,10.11
2019-05-09T22:55:47.463Z,10.08
2019-05-09T22:58:17.724Z,10.09
2019-05-09T23:00:47.987Z,10.14
2019-05-09T23:03:18.166Z,10.15
2019-05-09T23:05:48.484Z,10.06
2019-05-09T23:08:18.918Z,10.06
2019-05-09T23:10:52.848Z,10.05
2019-05-09T23:13:21.415Z,10.04
2019-05-09T23:15:51.685Z,10.02
2019-05-09T23:18:21.982Z,9.98
2019-05-09T23:20:57.364Z,9.96
2019-05-09T23:23:35.679Z,9.92
2019-05-09T23:26:06.197Z,9.91
2019-05-09T23:28:36.426Z,9.84
2019-05-09T23:31:10.299Z,9.78
2019-05-09T23:33:41.593Z,9.70
2019-05-09T23:36:11.792Z,9.71
2019-05-09T23:38:59.751Z,9.72
2019-05-09T23:41:29.978Z,9.64
2019-05-09T23:44:00.161Z,9.63
2019-05-09T23:46:30.513Z,9.63
2019-05-09T23:49:01.048Z,9.65
2019-05-09T23:51:47.809Z,9.61
2019-05-09T23:54:45.939Z,9.56
2019-05-09T23:57:26.739Z,9.53
